Accueil
METAR-TAF:

METAR-TAF

Aéroports :

Base aérienne de Morón

Morón de la Frontera, Espagne

latitude: 37-09N, longitude: 005-37W, altitude: 87 m

Observation

Le bulletin a été fait il y a 1 heure et 8 minutes, à 16:00 UTC
Vent 3 kt de nord/nord-ouest, variant entre nord-ouest et nord/nord-est
Température 16°C
Humidité 55%
Pression 1027 hPa
Visibilité 10 km ou plus
pas de nuages en-dessous de 1500 mètres et pas de cumulonimbus.

METAR: LEMO 151600Z 34003KT 320V020 CAVOK 16/07 Q1027 NOSIG

Heure: 18:08 (17:08 UTC)

Prévision

Le bulletin a été fait il y a 3 heures et 8 minutes, à 14:00 UTC
Prévision valable du 15 à 15 UTC au 15 à 24 UTC
Vent 3 kt de nord-est
Visibilité 10 km ou plus
pas de nuages en-dessous de 1500 mètres et pas de cumulonimbus.

TAF: LEMO 151400Z 1515/1524 04003KT CAVOK

Observations et prévisions météorologiques de plus de 4000 aéroports (messages METAR et TAF).

Les stations disponibles sont représentées par des disques jaunes et rouges sur la carte.

Passer la souris dessus pour voir le nom de la station.

Cliquer dessus pour voir les observations et prévisions météorologiques.

Pour changer de carte: cliquez sur les boutons verts avec une croix noire pour zoomer, sur le bouton vert avec un tiret pour effectuer un zoom arrière, ou sur les flèches vertes pour les cartes adjacentes.


METAR-TAF: